createdAt,value
2018-10-03T00:00:49.099Z,9.1
2018-10-03T00:05:48.895Z,9.1
2018-10-03T00:10:48.682Z,9.1
2018-10-03T00:15:49.006Z,9
2018-10-03T00:20:48.403Z,9
2018-10-03T00:25:48.748Z,8.9
2018-10-03T00:30:49.217Z,8.9
2018-10-03T00:35:48.585Z,8.9
2018-10-03T00:40:49.026Z,8.9
2018-10-03T00:45:48.434Z,8.9
2018-10-03T00:50:48.776Z,8.9
2018-10-03T00:55:49.162Z,8.9
2018-10-03T01:00:48.871Z,8.9
2018-10-03T01:05:48.877Z,8.9
2018-10-03T01:10:49.257Z,8.9
2018-10-03T01:15:48.624Z,8.8
2018-10-03T01:20:48.915Z,8.8
2018-10-03T01:25:49.246Z,8.8
2018-10-03T01:30:48.737Z,8.8
2018-10-03T01:35:49.081Z,8.8
2018-10-03T01:40:48.511Z,8.8
2018-10-03T01:45:48.969Z,8.7
2018-10-03T01:50:48.435Z,8.7
2018-10-03T01:55:48.768Z,8.7
2018-10-03T02:00:49.301Z,8.7
2018-10-03T02:05:48.521Z,8.7
2018-10-03T02:10:49.155Z,8.7
2018-10-03T02:15:48.487Z,8.7
2018-10-03T02:20:48.815Z,8.7
2018-10-03T02:25:49.075Z,8.7
2018-10-03T02:30:48.485Z,8.7
2018-10-03T02:35:48.868Z,8.8
2018-10-03T02:40:49.203Z,8.8
2018-10-03T02:45:48.714Z,8.8
2018-10-03T02:50:49.391Z,8.8
2018-10-03T02:55:48.685Z,8.8
2018-10-03T03:00:49.173Z,8.8
2018-10-03T03:05:48.493Z,8.8
2018-10-03T03:10:48.590Z,8.8
2018-10-03T03:15:48.734Z,8.8
2018-10-03T03:20:49.213Z,8.8
2018-10-03T03:25:48.644Z,8.8
2018-10-03T03:30:49.111Z,8.8
2018-10-03T03:35:49.029Z,8.8
2018-10-03T03:40:49.431Z,8.8
2018-10-03T03:45:48.871Z,8.9
2018-10-03T03:50:49.473Z,8.9
2018-10-03T03:55:49.496Z,8.9
2018-10-03T04:00:49.032Z,8.9
2018-10-03T04:05:48.955Z,9
2018-10-03T04:10:49.402Z,9
2018-10-03T04:15:48.695Z,9.1
2018-10-03T04:20:49.212Z,9.1
2018-10-03T04:25:48.771Z,9.1
2018-10-03T04:30:48.896Z,9.1
2018-10-03T04:35:49.516Z,9.1
2018-10-03T04:40:48.931Z,9.1
2018-10-03T04:45:48.818Z,9.1
2018-10-03T04:50:49.233Z,9.1
2018-10-03T04:55:48.643Z,9.1
2018-10-03T05:00:49.165Z,9.1
2018-10-03T05:05:48.815Z,9
2018-10-03T05:10:49.197Z,9
2018-10-03T05:15:49.556Z,9
2018-10-03T05:20:48.933Z,9
2018-10-03T05:25:49.358Z,9
2018-10-03T05:30:48.853Z,9
2018-10-03T05:35:49.241Z,9
2018-10-03T05:40:48.635Z,9
2018-10-03T05:45:49.058Z,9
2018-10-03T05:50:49.495Z,9
2018-10-03T05:55:48.942Z,9
2018-10-03T06:00:49.454Z,9
2018-10-03T06:05:49.418Z,8.9
2018-10-03T06:10:48.867Z,8.9
2018-10-03T06:15:49.331Z,9
2018-10-03T06:20:48.740Z,9
2018-10-03T06:25:49.199Z,9
2018-10-03T06:30:49.665Z,9
2018-10-03T06:35:49.205Z,9.1
2018-10-03T06:40:49.630Z,9.1
2018-10-03T06:45:49.118Z,9.2
2018-10-03T06:50:49.665Z,9.2
2018-10-03T06:55:49.111Z,9.2
2018-10-03T07:00:49.603Z,9.2
2018-10-03T07:05:49.327Z,9.4
2018-10-03T07:10:48.777Z,9.4
2018-10-03T07:15:49.241Z,9.7
2018-10-03T07:20:48.787Z,9.7
2018-10-03T07:25:49.224Z,9.8
2018-10-03T07:30:49.679Z,9.8
2018-10-03T07:35:49.121Z,9.9
2018-10-03T07:40:49.537Z,9.9
2018-10-03T07:45:48.934Z,10.4
2018-10-03T07:50:49.300Z,10.4
2018-10-03T07:55:49.653Z,10.9
2018-10-03T08:00:49.111Z,10.9
2018-10-03T08:05:49.088Z,11.6
2018-10-03T08:10:49.556Z,11.6
2018-10-03T08:15:49.024Z,12
2018-10-03T08:20:49.456Z,12
2018-10-03T08:25:49.001Z,12.5
2018-10-03T08:30:49.473Z,12.5
2018-10-03T08:35:48.882Z,12.7
2018-10-03T08:40:49.382Z,12.7
2018-10-03T08:45:48.818Z,12.8
2018-10-03T08:50:49.202Z,12.8
2018-10-03T08:55:49.527Z,12.8
2018-10-03T09:00:49.224Z,12.8
2018-10-03T09:05:48.833Z,12.7
2018-10-03T09:10:49.629Z,12.7
2018-10-03T09:15:49.511Z,12.6
2018-10-03T09:20:49.316Z,12.6
2018-10-03T09:25:49.044Z,12.6
2018-10-03T09:30:49.862Z,12.6
2018-10-03T09:35:49.640Z,12.4
2018-10-03T09:40:49.472Z,12.4
2018-10-03T09:45:49.095Z,12.4
2018-10-03T09:50:49.773Z,12.4
2018-10-03T09:55:49.571Z,12.6
2018-10-03T10:00:49.399Z,12.6
2018-10-03T10:05:49.220Z,13.4
2018-10-03T10:10:49.272Z,13.4
2018-10-03T10:15:49.195Z,14.3
2018-10-03T10:20:49.073Z,14.3
2018-10-03T10:25:48.922Z,15.2
2018-10-03T10:30:49.827Z,15.2
2018-10-03T10:35:49.864Z,15.1
2018-10-03T10:40:49.618Z,15.1
2018-10-03T10:45:49.452Z,15.3
2018-10-03T10:50:49.238Z,15.3
2018-10-03T10:55:49.101Z,15.5
2018-10-03T11:00:49.979Z,15.5
2018-10-03T11:05:49.906Z,15.6
2018-10-03T11:10:49.730Z,15.6
2018-10-03T11:15:49.491Z,15.3
2018-10-03T11:20:49.221Z,15.3
2018-10-03T11:25:49.941Z,14.8
2018-10-03T11:30:49.925Z,14.8
2018-10-03T11:35:49.706Z,14.8
2018-10-03T11:40:49.438Z,14.8
2018-10-03T11:45:49.302Z,15.2
2018-10-03T11:50:49.146Z,15.2
2018-10-03T11:55:49.961Z,15.6
2018-10-03T12:00:49.822Z,15.6
2018-10-03T12:05:49.056Z,15.5
2018-10-03T12:10:49.115Z,15.5
2018-10-03T12:15:49.907Z,15.8
2018-10-03T12:20:49.689Z,15.8
2018-10-03T12:25:49.438Z,16
2018-10-03T12:30:49.356Z,16
2018-10-03T12:35:49.845Z,16.1
2018-10-03T12:40:49.689Z,16.1
2018-10-03T12:45:49.515Z,16.3
2018-10-03T12:50:49.316Z,16.3
2018-10-03T12:55:49.283Z,15.7
2018-10-03T13:00:49.253Z,15.7
2018-10-03T13:05:49.468Z,14.7
2018-10-03T13:10:49.393Z,14.7
2018-10-03T13:15:49.132Z,14.3
2018-10-03T13:20:49.998Z,14.3
2018-10-03T13:25:49.463Z,14
2018-10-03T13:30:49.868Z,14
2018-10-03T13:35:49.763Z,14.8
2018-10-03T13:40:49.556Z,14.8
2018-10-03T13:45:49.714Z,14.6
2018-10-03T13:50:49.409Z,14.6
2018-10-03T13:55:49.141Z,15.2
2018-10-03T14:00:50.059Z,15.2
2018-10-03T14:05:49.725Z,15.4
2018-10-03T14:10:49.423Z,15.4
2018-10-03T14:15:50.097Z,15.1
2018-10-03T14:20:49.868Z,15.1
2018-10-03T14:25:49.547Z,15.5
2018-10-03T14:30:49.406Z,15.5
2018-10-03T14:35:49.471Z,15.3
2018-10-03T14:40:49.262Z,15.3
2018-10-03T14:45:49.974Z,14.8
2018-10-03T14:50:49.863Z,14.8
2018-10-03T14:55:49.542Z,14.3
2018-10-03T15:00:49.343Z,14.3
2018-10-03T15:05:50.183Z,13.6
2018-10-03T15:10:50.102Z,13.6
2018-10-03T15:15:49.905Z,13.2
2018-10-03T15:20:49.614Z,13.2
2018-10-03T15:25:49.778Z,12.9
2018-10-03T15:30:49.607Z,12.9
2018-10-03T15:35:49.505Z,12.8
2018-10-03T15:40:49.291Z,12.8
2018-10-03T15:45:49.984Z,12.7
2018-10-03T15:50:49.620Z,12.7
2018-10-03T15:55:49.349Z,12.5
2018-10-03T16:00:50.178Z,12.5
2018-10-03T16:05:50.148Z,12.4
2018-10-03T16:10:49.478Z,12.4
2018-10-03T16:15:49.284Z,12.3
2018-10-03T16:20:50.197Z,12.3
2018-10-03T16:25:50.044Z,12.1
2018-10-03T16:30:49.925Z,12.1
2018-10-03T16:35:49.697Z,12
2018-10-03T16:40:49.403Z,12
2018-10-03T16:45:50.050Z,11.9
2018-10-03T16:50:49.790Z,11.9
2018-10-03T16:55:49.565Z,11.8
2018-10-03T17:00:49.543Z,11.8
2018-10-03T17:05:49.396Z,11.7
2018-10-03T17:10:49.664Z,11.7
2018-10-03T17:15:49.529Z,11.5
2018-10-03T17:20:50.334Z,11.5
2018-10-03T17:25:50.099Z,11.3
2018-10-03T17:30:49.947Z,11.3
2018-10-03T17:35:49.715Z,11.3
2018-10-03T17:40:49.488Z,11.3
2018-10-03T17:45:50.404Z,11.2
2018-10-03T17:50:50.212Z,11.2
2018-10-03T17:55:50.024Z,11.2
2018-10-03T18:00:49.945Z,11.2
2018-10-03T18:05:49.809Z,11
2018-10-03T18:10:49.802Z,11
2018-10-03T18:15:49.660Z,10.8
2018-10-03T18:20:50.424Z,10.8
2018-10-03T18:25:50.368Z,10.7
2018-10-03T18:30:50.316Z,10.7
2018-10-03T18:35:49.927Z,10.6
2018-10-03T18:40:49.649Z,10.6
2018-10-03T18:45:49.673Z,10.4
2018-10-03T18:50:49.508Z,10.4
2018-10-03T18:55:49.661Z,10.3
2018-10-03T19:00:50.556Z,10.3
2018-10-03T19:05:49.679Z,10.3
2018-10-03T19:10:49.629Z,10.3
2018-10-03T19:15:49.456Z,10.2
2018-10-03T19:20:50.324Z,10.2
2018-10-03T19:25:50.137Z,10.2
2018-10-03T19:30:49.970Z,10.2
2018-10-03T19:35:49.846Z,10.2
2018-10-03T19:40:49.699Z,10.2
2018-10-03T19:45:50.553Z,10.2
2018-10-03T19:50:50.240Z,10.2
2018-10-03T19:55:49.978Z,10.2
2018-10-03T20:00:49.847Z,10.2
2018-10-03T20:05:49.818Z,10.2
2018-10-03T20:10:50.027Z,10.2
2018-10-03T20:15:49.900Z,10.2
2018-10-03T20:20:49.688Z,10.2
2018-10-03T20:25:50.396Z,10.2
2018-10-03T20:30:50.335Z,10.2
2018-10-03T20:35:50.095Z,10.3
2018-10-03T20:40:49.941Z,10.3
2018-10-03T20:45:49.812Z,10.3
2018-10-03T20:50:49.659Z,10.3
2018-10-03T20:55:50.661Z,10.3
2018-10-03T21:00:50.631Z,10.3
2018-10-03T21:05:49.797Z,10.4
2018-10-03T21:10:50.532Z,10.4
2018-10-03T21:15:50.348Z,10.4
2018-10-03T21:20:50.162Z,10.4
2018-10-03T21:25:49.862Z,10.5
2018-10-03T21:30:49.791Z,10.5
2018-10-03T21:35:50.502Z,10.6
2018-10-03T21:40:50.320Z,10.6
2018-10-03T21:45:50.100Z,10.6
2018-10-03T21:50:49.894Z,10.6
2018-10-03T21:55:49.683Z,10.6
2018-10-03T22:00:50.602Z,10.6
2018-10-03T22:05:50.122Z,10.6
2018-10-03T22:10:49.879Z,10.6
2018-10-03T22:15:49.779Z,10.6
2018-10-03T22:20:50.508Z,10.6
2018-10-03T22:25:50.234Z,10.6
2018-10-03T22:30:49.748Z,10.6
2018-10-03T22:35:49.771Z,10.6
2018-10-03T22:40:50.521Z,10.6
2018-10-03T22:45:50.261Z,10.6
2018-10-03T22:50:50.053Z,10.6
2018-10-03T22:55:49.751Z,10.6
2018-10-03T23:00:50.796Z,10.6
2018-10-03T23:05:50.694Z,10.6
2018-10-03T23:10:50.386Z,10.6
2018-10-03T23:15:50.085Z,10.6
2018-10-03T23:20:49.816Z,10.6
2018-10-03T23:25:50.776Z,10.6
2018-10-03T23:30:50.568Z,10.6
2018-10-03T23:35:50.522Z,10.5
2018-10-03T23:40:50.258Z,10.5
2018-10-03T23:45:50.080Z,10.4
2018-10-03T23:50:49.879Z,10.4
2018-10-03T23:55:50.622Z,10.4
